createdAt,value
2018-05-07T00:00:46.583Z,995.72
2018-05-07T00:01:46.736Z,995.66
2018-05-07T00:02:46.889Z,995.69
2018-05-07T00:03:47.082Z,995.70
2018-05-07T00:04:47.193Z,995.69
2018-05-07T00:05:47.413Z,995.67
2018-05-07T00:06:47.509Z,995.66
2018-05-07T00:07:47.657Z,995.67
2018-05-07T00:08:47.813Z,995.65
2018-05-07T00:09:47.978Z,995.71
2018-05-07T00:10:48.118Z,995.69
2018-05-07T00:11:48.283Z,995.74
2018-05-07T00:12:48.421Z,995.71
2018-05-07T00:13:48.573Z,995.74
2018-05-07T00:14:48.724Z,995.74
2018-05-07T00:15:48.877Z,995.76
2018-05-07T00:16:49.028Z,995.74
2018-05-07T00:17:49.181Z,995.70
2018-05-07T00:18:49.332Z,995.73
2018-05-07T00:19:49.486Z,995.75
2018-05-07T00:20:49.644Z,995.78
2018-05-07T00:21:49.795Z,995.77
2018-05-07T00:22:49.947Z,995.73
2018-05-07T00:23:50.098Z,995.76
2018-05-07T00:24:50.250Z,995.77
2018-05-07T00:25:50.402Z,995.73
2018-05-07T00:26:50.555Z,995.74
2018-05-07T00:27:50.707Z,995.73
2018-05-07T00:28:50.860Z,995.73
2018-05-07T00:29:51.018Z,995.75
2018-05-07T00:30:51.166Z,995.77
2018-05-07T00:31:51.319Z,995.76
2018-05-07T00:32:51.474Z,995.77
2018-05-07T00:33:51.625Z,995.77
2018-05-07T00:34:51.775Z,995.78
2018-05-07T00:35:51.925Z,995.76
2018-05-07T00:36:52.079Z,995.75
2018-05-07T00:37:52.231Z,995.77
2018-05-07T00:38:52.381Z,995.75
2018-05-07T00:39:52.539Z,995.71
2018-05-07T00:40:52.694Z,995.71
2018-05-07T00:41:52.842Z,995.70
2018-05-07T00:42:52.994Z,995.67
2018-05-07T00:43:53.142Z,995.72
2018-05-07T00:44:53.293Z,995.70
2018-05-07T00:45:53.446Z,995.71
2018-05-07T00:46:53.599Z,995.76
2018-05-07T00:47:53.749Z,995.72
2018-05-07T00:48:53.901Z,995.67
2018-05-07T00:49:54.053Z,995.72
2018-05-07T00:50:54.206Z,995.73
2018-05-07T00:51:54.361Z,995.65
2018-05-07T00:52:54.511Z,995.65
2018-05-07T00:53:54.662Z,995.61
2018-05-07T00:54:54.813Z,995.71
2018-05-07T00:55:54.966Z,995.71
2018-05-07T00:56:55.117Z,995.71
2018-05-07T00:57:55.269Z,995.72
2018-05-07T00:58:55.418Z,995.72
2018-05-07T00:59:55.570Z,995.71
2018-05-07T01:00:55.726Z,995.67
2018-05-07T01:01:55.873Z,995.71
2018-05-07T01:02:56.026Z,995.72
2018-05-07T01:03:56.174Z,995.75
2018-05-07T01:04:56.329Z,995.77
2018-05-07T01:05:56.478Z,995.75
2018-05-07T01:06:56.630Z,995.74
2018-05-07T01:07:56.780Z,995.77
2018-05-07T01:08:56.933Z,995.79
2018-05-07T01:09:57.084Z,995.76
2018-05-07T01:10:57.234Z,995.78
2018-05-07T01:11:57.385Z,995.80
2018-05-07T01:12:57.536Z,995.80
2018-05-07T01:13:57.688Z,995.83
2018-05-07T01:14:57.838Z,995.83
2018-05-07T01:15:57.990Z,995.79
2018-05-07T01:16:58.141Z,995.81
2018-05-07T01:17:58.301Z,995.84
2018-05-07T01:18:58.446Z,995.86
2018-05-07T01:19:58.600Z,995.84
2018-05-07T01:20:58.748Z,995.84
2018-05-07T01:21:58.899Z,995.86
2018-05-07T01:22:59.053Z,995.86
2018-05-07T01:23:59.203Z,995.82
2018-05-07T01:24:59.350Z,995.81
2018-05-07T01:25:59.507Z,995.78
2018-05-07T01:26:59.660Z,995.80
2018-05-07T01:27:59.810Z,995.80
2018-05-07T01:28:59.962Z,995.79
2018-05-07T01:30:00.122Z,995.80
2018-05-07T01:31:00.259Z,995.80
2018-05-07T01:32:00.423Z,995.79
2018-05-07T01:33:00.575Z,995.77
2018-05-07T01:34:00.724Z,995.81
2018-05-07T01:35:00.880Z,995.78
2018-05-07T01:36:01.034Z,995.80
2018-05-07T01:37:01.185Z,995.78
2018-05-07T01:38:01.335Z,995.80
2018-05-07T01:39:01.488Z,995.81
2018-05-07T01:40:01.638Z,995.83
2018-05-07T01:41:01.792Z,995.81
2018-05-07T01:42:01.945Z,995.81
2018-05-07T01:43:02.096Z,995.84
2018-05-07T01:44:02.246Z,995.82
2018-05-07T01:45:02.397Z,995.84
2018-05-07T01:46:02.547Z,995.85
2018-05-07T01:47:02.699Z,995.86
2018-05-07T01:48:02.850Z,995.86
2018-05-07T01:49:03.003Z,995.85
2018-05-07T01:50:03.154Z,995.85
2018-05-07T01:51:03.307Z,995.85
2018-05-07T01:52:03.463Z,995.83
2018-05-07T01:53:03.621Z,995.81
2018-05-07T01:54:03.775Z,995.79
2018-05-07T01:55:03.914Z,995.76
2018-05-07T01:56:04.065Z,995.78
2018-05-07T01:57:04.216Z,995.78
2018-05-07T01:58:04.368Z,995.77
2018-05-07T01:59:04.521Z,995.76
2018-05-07T02:00:04.677Z,995.72
2018-05-07T02:01:04.828Z,995.74
2018-05-07T02:02:04.979Z,995.77
2018-05-07T02:03:05.135Z,995.76
2018-05-07T02:04:05.322Z,995.77
2018-05-07T02:05:05.430Z,995.73
2018-05-07T02:06:05.581Z,995.71
2018-05-07T02:07:05.732Z,995.72
2018-05-07T02:08:05.883Z,995.71
2018-05-07T02:09:06.033Z,995.74
2018-05-07T02:10:06.189Z,995.72
2018-05-07T02:11:06.339Z,995.68
2018-05-07T02:12:06.492Z,995.71
2018-05-07T02:13:06.642Z,995.68
2018-05-07T02:14:06.795Z,995.68
2018-05-07T02:15:06.947Z,995.68
2018-05-07T02:16:07.101Z,995.69
2018-05-07T02:17:07.250Z,995.64
2018-05-07T02:18:07.400Z,995.57
2018-05-07T02:19:07.555Z,995.62
2018-05-07T02:20:07.707Z,995.60
2018-05-07T02:21:07.863Z,995.63
2018-05-07T02:22:08.014Z,995.63
2018-05-07T02:23:08.169Z,995.66
2018-05-07T02:24:08.319Z,995.63
2018-05-07T02:25:08.469Z,995.66
2018-05-07T02:26:08.619Z,995.65
2018-05-07T02:27:08.771Z,995.67
2018-05-07T02:28:08.924Z,995.60
2018-05-07T02:29:09.073Z,995.59
2018-05-07T02:30:09.228Z,995.57
2018-05-07T02:31:09.378Z,995.57
2018-05-07T02:32:09.531Z,995.55
2018-05-07T02:33:09.681Z,995.52
2018-05-07T02:34:09.834Z,995.55
2018-05-07T02:35:09.992Z,995.52
2018-05-07T02:36:10.137Z,995.54
2018-05-07T02:37:10.292Z,995.53
2018-05-07T02:38:10.440Z,995.51
2018-05-07T02:39:10.592Z,995.49
2018-05-07T02:40:10.744Z,995.46
2018-05-07T02:41:10.895Z,995.47
2018-05-07T02:42:11.046Z,995.45
2018-05-07T02:43:11.197Z,995.45
2018-05-07T02:44:11.348Z,995.45
2018-05-07T02:45:11.501Z,995.45
2018-05-07T02:46:11.650Z,995.42
2018-05-07T02:47:11.802Z,995.43
2018-05-07T02:48:11.954Z,995.42
2018-05-07T02:49:12.106Z,995.40
2018-05-07T02:50:12.248Z,995.41
2018-05-07T02:51:12.452Z,995.41
2018-05-07T02:52:12.581Z,995.39
2018-05-07T02:53:12.734Z,995.36
2018-05-07T02:54:12.884Z,995.35
2018-05-07T02:55:13.036Z,995.34
2018-05-07T02:56:13.188Z,995.34
2018-05-07T02:57:13.339Z,995.31
2018-05-07T02:58:13.492Z,995.29
2018-05-07T02:59:13.641Z,995.32
2018-05-07T03:00:13.795Z,995.35
2018-05-07T03:01:13.948Z,995.33
2018-05-07T03:02:14.098Z,995.33
2018-05-07T03:03:14.250Z,995.36
2018-05-07T03:04:14.401Z,995.33
2018-05-07T03:05:14.554Z,995.31
2018-05-07T03:06:14.705Z,995.27
2018-05-07T03:07:14.857Z,995.28
2018-05-07T03:08:15.007Z,995.30
2018-05-07T03:09:15.160Z,995.29
2018-05-07T03:10:15.317Z,995.31
2018-05-07T03:11:15.462Z,995.31
2018-05-07T03:12:15.634Z,995.26
2018-05-07T03:13:15.769Z,995.30
2018-05-07T03:14:15.917Z,995.24
2018-05-07T03:15:16.069Z,995.23
2018-05-07T03:16:16.218Z,995.21
2018-05-07T03:17:16.371Z,995.21
2018-05-07T03:18:16.522Z,995.21
2018-05-07T03:19:16.673Z,995.20
2018-05-07T03:20:16.823Z,995.19
2018-05-07T03:21:16.975Z,995.20
2018-05-07T03:22:17.127Z,995.18
2018-05-07T03:23:17.274Z,995.14
2018-05-07T03:24:17.427Z,995.11
2018-05-07T03:25:17.577Z,995.12
2018-05-07T03:26:17.727Z,995.09
2018-05-07T03:27:17.878Z,995.10
2018-05-07T03:28:18.029Z,995.09
2018-05-07T03:29:18.180Z,995.04
2018-05-07T03:30:18.331Z,995.07
2018-05-07T03:31:18.487Z,995.02
2018-05-07T03:32:18.642Z,995.05
2018-05-07T03:33:18.793Z,995.01
2018-05-07T03:34:18.943Z,995.01
2018-05-07T03:35:19.097Z,994.97
2018-05-07T03:36:19.247Z,994.97
2018-05-07T03:37:19.397Z,994.99
2018-05-07T03:38:19.549Z,994.98
2018-05-07T03:39:19.698Z,995.00
2018-05-07T03:40:19.852Z,994.99
2018-05-07T03:41:20.003Z,995.02
2018-05-07T03:42:20.153Z,995.00
2018-05-07T03:43:20.302Z,995.05
2018-05-07T03:44:20.457Z,995.01
2018-05-07T03:45:20.604Z,995.02
2018-05-07T03:46:20.753Z,995.03
2018-05-07T03:47:20.902Z,995.03
2018-05-07T03:48:21.054Z,995.07
2018-05-07T03:49:21.204Z,995.05
2018-05-07T03:50:21.358Z,995.06
2018-05-07T03:51:21.508Z,995.05
2018-05-07T03:52:21.658Z,995.05
2018-05-07T03:53:21.807Z,995.04
2018-05-07T03:54:21.959Z,995.05
2018-05-07T03:55:22.111Z,995.04
2018-05-07T03:56:22.261Z,995.07
2018-05-07T03:57:22.409Z,995.07
2018-05-07T03:58:22.566Z,995.05
2018-05-07T03:59:22.711Z,995.03
2018-05-07T04:00:22.863Z,995.05
2018-05-07T04:01:23.029Z,995.06
2018-05-07T04:02:23.166Z,995.06
2018-05-07T04:03:23.319Z,995.05
2018-05-07T04:04:23.468Z,995.07
2018-05-07T04:05:23.621Z,995.06
2018-05-07T04:06:23.771Z,995.09
2018-05-07T04:07:23.935Z,995.09
2018-05-07T04:08:24.071Z,995.06
2018-05-07T04:09:24.222Z,995.03
2018-05-07T04:10:24.373Z,995.07
2018-05-07T04:11:24.524Z,995.06
2018-05-07T04:12:24.679Z,995.01
2018-05-07T04:13:24.834Z,995.03
2018-05-07T04:14:24.976Z,995.01
2018-05-07T04:15:25.130Z,995.01
2018-05-07T04:16:25.279Z,995.02
2018-05-07T04:17:25.429Z,995.03
2018-05-07T04:18:25.580Z,995.03
2018-05-07T04:19:25.730Z,994.99
2018-05-07T04:20:25.883Z,995.02
2018-05-07T04:21:26.033Z,995.02
2018-05-07T04:22:26.184Z,995.04
2018-05-07T04:23:26.412Z,995.03
2018-05-07T04:24:26.487Z,995.04
2018-05-07T04:25:26.637Z,995.09
2018-05-07T04:26:26.802Z,995.10
2018-05-07T04:27:26.934Z,995.17
2018-05-07T04:28:27.084Z,995.14
2018-05-07T04:29:27.234Z,995.14
2018-05-07T04:30:27.385Z,995.15
2018-05-07T04:31:27.536Z,995.16
2018-05-07T04:32:27.691Z,995.11
2018-05-07T04:33:27.837Z,995.14
2018-05-07T04:34:27.988Z,995.14
2018-05-07T04:35:28.138Z,995.14
2018-05-07T04:36:28.294Z,995.10
2018-05-07T04:37:28.440Z,995.16
2018-05-07T04:38:28.592Z,995.16
2018-05-07T04:39:28.741Z,995.15
2018-05-07T04:40:28.893Z,995.15
2018-05-07T04:41:29.044Z,995.17
2018-05-07T04:42:29.196Z,995.19
2018-05-07T04:43:29.346Z,995.15
2018-05-07T04:44:29.495Z,995.16
2018-05-07T04:45:29.648Z,995.16
2018-05-07T04:46:29.800Z,995.15
2018-05-07T04:47:29.952Z,995.13
2018-05-07T04:48:30.103Z,995.15
2018-05-07T04:49:30.255Z,995.20
2018-05-07T04:50:30.406Z,995.18
2018-05-07T04:51:30.557Z,995.21
2018-05-07T04:52:30.708Z,995.18
2018-05-07T04:53:30.854Z,995.21
2018-05-07T04:54:31.010Z,995.26
2018-05-07T04:55:31.160Z,995.17
2018-05-07T04:56:31.313Z,995.23
2018-05-07T04:57:31.463Z,995.19
2018-05-07T04:58:31.628Z,995.22
2018-05-07T04:59:31.759Z,995.22
2018-05-07T05:00:31.909Z,995.24
2018-05-07T05:01:32.061Z,995.23
2018-05-07T05:02:32.217Z,995.27
2018-05-07T05:03:32.387Z,995.28
2018-05-07T05:04:32.530Z,995.25
2018-05-07T05:05:32.655Z,995.26
2018-05-07T05:06:32.810Z,995.24
2018-05-07T05:07:32.962Z,995.24
2018-05-07T05:08:33.104Z,995.27
2018-05-07T05:09:33.254Z,995.24
2018-05-07T05:10:33.408Z,995.28
2018-05-07T05:11:33.563Z,995.26
2018-05-07T05:12:33.716Z,995.26
2018-05-07T05:13:33.867Z,995.29
2018-05-07T05:14:34.021Z,995.26
2018-05-07T05:15:34.170Z,995.30
2018-05-07T05:16:34.320Z,995.30
2018-05-07T05:17:34.475Z,995.30
2018-05-07T05:18:34.625Z,995.34
2018-05-07T05:19:34.779Z,995.30
2018-05-07T05:20:34.929Z,995.33
2018-05-07T05:21:35.082Z,995.34
2018-05-07T05:22:35.224Z,995.33
2018-05-07T05:23:35.378Z,995.38
2018-05-07T05:24:35.530Z,995.35
2018-05-07T05:25:35.678Z,995.36
2018-05-07T05:26:35.833Z,995.34
2018-05-07T05:27:35.983Z,995.34
2018-05-07T05:28:36.146Z,995.33
2018-05-07T05:29:36.275Z,995.33
2018-05-07T05:30:36.432Z,995.34
2018-05-07T05:31:36.590Z,995.34
2018-05-07T05:32:36.741Z,995.36
2018-05-07T05:33:36.893Z,995.36
2018-05-07T05:34:37.045Z,995.36
2018-05-07T05:35:37.198Z,995.37
2018-05-07T05:36:37.347Z,995.37
2018-05-07T05:37:37.502Z,995.36
2018-05-07T05:38:37.653Z,995.33
2018-05-07T05:39:37.807Z,995.36
2018-05-07T05:40:37.958Z,995.36
2018-05-07T05:41:38.117Z,995.36
2018-05-07T05:42:38.262Z,995.36
2018-05-07T05:43:38.522Z,995.38
2018-05-07T05:44:38.565Z,995.40
2018-05-07T05:45:38.722Z,995.41
2018-05-07T05:46:38.870Z,995.43
2018-05-07T05:47:39.023Z,995.41
2018-05-07T05:48:39.174Z,995.45
2018-05-07T05:49:39.326Z,995.43
2018-05-07T05:50:39.480Z,995.40
2018-05-07T05:51:39.631Z,995.37
2018-05-07T05:52:39.783Z,995.35
2018-05-07T05:53:39.961Z,995.36
2018-05-07T05:54:40.089Z,995.34
2018-05-07T05:55:40.309Z,995.40
2018-05-07T05:56:40.392Z,995.40
2018-05-07T05:57:40.549Z,995.40
2018-05-07T05:58:40.697Z,995.42
2018-05-07T05:59:40.850Z,995.48
2018-05-07T06:00:41.001Z,995.46
2018-05-07T06:01:41.155Z,995.47
2018-05-07T06:02:41.307Z,995.46
2018-05-07T06:03:41.569Z,995.48
2018-05-07T06:04:41.614Z,995.47
2018-05-07T06:05:41.765Z,995.49
2018-05-07T06:06:41.916Z,995.52
2018-05-07T06:07:42.069Z,995.52
2018-05-07T06:08:42.230Z,995.51
2018-05-07T06:09:42.374Z,995.53
2018-05-07T06:10:42.526Z,995.50
2018-05-07T06:11:42.682Z,995.49
2018-05-07T06:12:42.833Z,995.48
2018-05-07T06:13:42.984Z,995.52
2018-05-07T06:14:43.202Z,995.50
2018-05-07T06:15:43.294Z,995.50
2018-05-07T06:16:43.442Z,995.47
2018-05-07T06:17:43.595Z,995.43
2018-05-07T06:18:43.747Z,995.46
2018-05-07T06:19:43.900Z,995.43
2018-05-07T06:20:44.053Z,995.43
2018-05-07T06:21:44.207Z,995.41
2018-05-07T06:22:44.361Z,995.41
2018-05-07T06:23:44.513Z,995.43
2018-05-07T06:24:44.668Z,995.41
2018-05-07T06:25:44.819Z,995.42
2018-05-07T06:26:44.973Z,995.46
2018-05-07T06:27:45.125Z,995.46
2018-05-07T06:28:45.277Z,995.47
2018-05-07T06:29:45.431Z,995.42
2018-05-07T06:30:45.611Z,995.46
2018-05-07T06:31:45.738Z,995.46
2018-05-07T06:32:45.896Z,995.43
2018-05-07T06:33:46.048Z,995.46
2018-05-07T06:34:46.202Z,995.45
2018-05-07T06:35:46.357Z,995.46
2018-05-07T06:36:46.508Z,995.44
2018-05-07T06:37:46.665Z,995.43
2018-05-07T06:38:46.816Z,995.43
2018-05-07T06:39:46.971Z,995.43
2018-05-07T06:40:47.122Z,995.42
2018-05-07T06:41:47.283Z,995.39
2018-05-07T06:42:47.433Z,995.41
2018-05-07T06:43:47.586Z,995.35
2018-05-07T06:44:47.742Z,995.37
2018-05-07T06:45:47.948Z,995.39
2018-05-07T06:46:48.050Z,995.37
2018-05-07T06:47:48.204Z,995.39
2018-05-07T06:48:48.364Z,995.38
2018-05-07T06:49:48.521Z,995.37
2018-05-07T06:50:48.696Z,995.37
2018-05-07T06:51:48.817Z,995.30
2018-05-07T06:52:48.972Z,995.30
2018-05-07T06:53:49.129Z,995.31
2018-05-07T06:54:49.281Z,995.30
2018-05-07T06:55:49.433Z,995.30
2018-05-07T06:56:49.588Z,995.29
2018-05-07T06:57:49.742Z,995.27
2018-05-07T06:58:49.897Z,995.27
2018-05-07T06:59:50.052Z,995.29
2018-05-07T07:00:50.204Z,995.27
2018-05-07T07:01:50.364Z,995.27
2018-05-07T07:02:50.644Z,995.26
2018-05-07T07:03:50.678Z,995.23
2018-05-07T07:04:50.827Z,995.23
2018-05-07T07:05:50.983Z,995.21
2018-05-07T07:06:51.138Z,995.16
2018-05-07T07:07:51.290Z,995.15
2018-05-07T07:08:51.443Z,995.13
2018-05-07T07:09:51.599Z,995.11
2018-05-07T07:10:51.755Z,995.08
2018-05-07T07:11:51.912Z,995.08
2018-05-07T07:12:52.068Z,995.08
2018-05-07T07:13:52.222Z,995.02
2018-05-07T07:14:52.381Z,995.06
2018-05-07T07:15:52.533Z,995.04
2018-05-07T07:16:52.688Z,995.00
2018-05-07T07:17:52.843Z,995.05
2018-05-07T07:18:52.999Z,995.06
2018-05-07T07:19:53.168Z,995.05
2018-05-07T07:20:53.307Z,995.03
2018-05-07T07:21:53.522Z,995.01
2018-05-07T07:22:53.625Z,995.03
2018-05-07T07:23:53.767Z,995.04
2018-05-07T07:24:53.921Z,995.01
2018-05-07T07:25:54.076Z,995.07
2018-05-07T07:26:54.232Z,995.00
2018-05-07T07:27:54.391Z,994.99
2018-05-07T07:28:54.541Z,995.03
2018-05-07T07:29:54.696Z,995.00
2018-05-07T07:30:54.852Z,995.02
2018-05-07T07:31:55.007Z,994.98
2018-05-07T07:32:55.162Z,995.02
2018-05-07T07:33:55.398Z,994.99
2018-05-07T07:34:55.469Z,994.99
2018-05-07T07:35:55.626Z,994.96
2018-05-07T07:36:55.781Z,994.98
2018-05-07T07:37:55.937Z,994.96
2018-05-07T07:38:56.095Z,994.99
2018-05-07T07:39:56.249Z,994.95
2018-05-07T07:40:56.406Z,995.00
2018-05-07T07:41:56.559Z,994.97
2018-05-07T07:42:56.717Z,995.01
2018-05-07T07:43:56.872Z,995.00
2018-05-07T07:44:57.026Z,995.00
2018-05-07T07:45:57.180Z,995.03
2018-05-07T07:46:57.342Z,995.03
2018-05-07T07:47:57.492Z,995.03
2018-05-07T07:48:57.647Z,995.02
2018-05-07T07:49:57.802Z,995.05
2018-05-07T07:50:57.957Z,995.03
2018-05-07T07:51:58.114Z,995.02
2018-05-07T07:52:58.271Z,995.03
2018-05-07T07:53:58.428Z,995.02
2018-05-07T07:54:58.585Z,995.01
2018-05-07T07:55:58.742Z,995.03
2018-05-07T07:56:58.900Z,995.01
2018-05-07T07:57:59.056Z,994.98
2018-05-07T07:58:59.214Z,994.95
2018-05-07T07:59:59.368Z,994.94
2018-05-07T08:00:59.526Z,994.95
2018-05-07T08:01:59.680Z,994.91
2018-05-07T08:02:59.840Z,994.92
2018-05-07T08:03:59.990Z,994.93
2018-05-07T08:05:00.145Z,994.90
2018-05-07T08:06:00.302Z,994.92
2018-05-07T08:07:00.460Z,994.89
2018-05-07T08:08:00.617Z,994.91
2018-05-07T08:09:00.772Z,994.89
2018-05-07T08:10:00.930Z,994.89
2018-05-07T08:11:01.134Z,994.88
2018-05-07T08:12:01.262Z,994.88
2018-05-07T08:13:01.406Z,994.89
2018-05-07T08:14:01.562Z,994.84
2018-05-07T08:15:01.718Z,994.84
2018-05-07T08:16:01.876Z,994.86
2018-05-07T08:17:02.032Z,994.84
2018-05-07T08:18:02.209Z,994.80
2018-05-07T08:19:02.343Z,994.79
2018-05-07T08:20:02.506Z,994.82
2018-05-07T08:21:02.656Z,994.86
2018-05-07T08:22:02.812Z,994.85
2018-05-07T08:23:02.965Z,994.80
2018-05-07T08:24:03.120Z,994.78
2018-05-07T08:25:03.281Z,994.82
2018-05-07T08:26:03.439Z,994.79
2018-05-07T08:27:03.596Z,994.78
2018-05-07T08:28:03.750Z,994.71
2018-05-07T08:29:03.906Z,994.75
2018-05-07T08:30:04.063Z,994.75
2018-05-07T08:31:04.227Z,994.69
2018-05-07T08:32:04.374Z,994.65
2018-05-07T08:33:04.531Z,994.73
2018-05-07T08:34:04.686Z,994.69
2018-05-07T08:35:04.844Z,994.74
2018-05-07T08:36:05.004Z,994.72
2018-05-07T08:37:05.162Z,994.70
2018-05-07T08:38:05.318Z,994.75
2018-05-07T08:39:05.465Z,994.75
2018-05-07T08:40:05.648Z,994.70
2018-05-07T08:41:05.803Z,994.72
2018-05-07T08:42:05.961Z,994.74
2018-05-07T08:43:06.118Z,994.72
2018-05-07T08:44:06.277Z,994.69
2018-05-07T08:45:06.436Z,994.68
2018-05-07T08:46:06.593Z,994.67
2018-05-07T08:47:06.753Z,994.70
2018-05-07T08:48:06.911Z,994.68
2018-05-07T08:49:07.070Z,994.69
2018-05-07T08:50:07.227Z,994.69
2018-05-07T08:51:07.389Z,994.67
2018-05-07T08:52:07.546Z,994.72
2018-05-07T08:53:07.748Z,994.75
2018-05-07T08:54:07.857Z,994.72
2018-05-07T08:55:08.015Z,994.68
2018-05-07T08:56:08.167Z,994.71
2018-05-07T08:57:08.329Z,994.69
2018-05-07T08:58:08.505Z,994.67
2018-05-07T08:59:08.650Z,994.68
2018-05-07T09:00:08.809Z,994.64
2018-05-07T09:01:08.971Z,994.61
2018-05-07T09:02:09.185Z,994.60
2018-05-07T09:03:09.284Z,994.61
2018-05-07T09:04:09.458Z,994.58
2018-05-07T09:05:09.615Z,994.62
2018-05-07T09:06:09.742Z,994.63
2018-05-07T09:07:09.901Z,994.59
2018-05-07T09:08:10.096Z,994.59
2018-05-07T09:09:10.215Z,994.61
2018-05-07T09:10:10.375Z,994.58
2018-05-07T09:11:10.536Z,994.58
2018-05-07T09:12:10.689Z,994.57
2018-05-07T09:13:10.847Z,994.56
2018-05-07T09:14:11.010Z,994.53
2018-05-07T09:15:11.170Z,994.54
2018-05-07T09:16:11.322Z,994.47
2018-05-07T09:17:11.493Z,994.47
2018-05-07T09:18:11.646Z,994.47
2018-05-07T09:19:11.804Z,994.52
2018-05-07T09:20:11.967Z,994.45
2018-05-07T09:21:12.118Z,994.50
2018-05-07T09:22:12.277Z,994.48
2018-05-07T09:23:12.431Z,994.44
2018-05-07T09:24:12.595Z,994.46
2018-05-07T09:25:12.753Z,994.43
2018-05-07T09:26:12.911Z,994.43
2018-05-07T09:27:13.076Z,994.41
2018-05-07T09:28:13.231Z,994.40
2018-05-07T09:29:13.392Z,994.41
2018-05-07T09:30:13.552Z,994.39
2018-05-07T09:31:13.712Z,994.40
2018-05-07T09:32:13.870Z,994.36
2018-05-07T09:33:14.028Z,994.36
2018-05-07T09:34:14.183Z,994.31
2018-05-07T09:35:14.344Z,994.33
2018-05-07T09:36:14.512Z,994.33
2018-05-07T09:37:14.660Z,994.33
2018-05-07T09:38:14.813Z,994.26
2018-05-07T09:39:14.974Z,994.29
2018-05-07T09:40:15.130Z,994.30
2018-05-07T09:41:15.282Z,994.27
2018-05-07T09:42:15.435Z,994.26
2018-05-07T09:43:15.613Z,994.22
2018-05-07T09:44:15.747Z,994.24
2018-05-07T09:45:15.909Z,994.24
2018-05-07T09:46:16.073Z,994.22
2018-05-07T09:47:16.218Z,994.29
2018-05-07T09:48:16.385Z,994.23
2018-05-07T09:49:16.535Z,994.26
2018-05-07T09:50:16.692Z,994.20
2018-05-07T09:51:16.855Z,994.16
2018-05-07T09:52:17.014Z,994.14
2018-05-07T09:53:17.174Z,994.11
2018-05-07T09:54:17.331Z,994.14
2018-05-07T09:55:17.489Z,994.09
2018-05-07T09:56:17.648Z,994.11
2018-05-07T09:57:17.805Z,994.14
2018-05-07T09:58:17.967Z,994.15
2018-05-07T09:59:18.126Z,994.17
2018-05-07T10:00:18.283Z,994.15
2018-05-07T10:01:18.444Z,994.15
2018-05-07T10:02:18.611Z,994.14
2018-05-07T10:03:18.767Z,994.12
2018-05-07T10:04:18.927Z,994.09
2018-05-07T10:05:19.085Z,994.14
2018-05-07T10:06:19.246Z,994.14
2018-05-07T10:07:19.406Z,994.13
2018-05-07T10:08:19.567Z,994.14
2018-05-07T10:09:19.725Z,994.11
2018-05-07T10:10:19.885Z,994.10
2018-05-07T10:11:20.043Z,994.14
2018-05-07T10:12:20.201Z,994.05
2018-05-07T10:13:20.361Z,994.07
2018-05-07T10:14:20.521Z,994.05
2018-05-07T10:15:20.687Z,994.01
2018-05-07T10:16:20.836Z,994.00
2018-05-07T10:17:20.993Z,993.98
2018-05-07T10:18:21.159Z,993.99
2018-05-07T10:19:21.315Z,994.00
2018-05-07T10:20:21.475Z,993.93
2018-05-07T10:21:21.635Z,993.91
2018-05-07T10:22:21.793Z,993.91
2018-05-07T10:23:21.960Z,993.85
2018-05-07T10:24:22.118Z,993.88
2018-05-07T10:25:22.277Z,993.91
2018-05-07T10:26:22.438Z,993.85
2018-05-07T10:27:22.597Z,993.84
2018-05-07T10:28:22.758Z,993.89
2018-05-07T10:29:22.917Z,993.90
2018-05-07T10:30:23.077Z,993.89
2018-05-07T10:31:23.240Z,993.89
2018-05-07T10:32:23.400Z,993.85
2018-05-07T10:33:23.540Z,993.81
2018-05-07T10:34:23.700Z,993.85
2018-05-07T10:35:23.876Z,993.82
2018-05-07T10:36:24.025Z,993.81
2018-05-07T10:37:24.185Z,993.76
2018-05-07T10:38:24.363Z,993.74
2018-05-07T10:39:24.485Z,993.68
2018-05-07T10:40:24.644Z,993.77
2018-05-07T10:41:24.794Z,993.77
2018-05-07T10:42:24.954Z,993.83
2018-05-07T10:43:25.116Z,993.78
2018-05-07T10:44:25.280Z,993.72
2018-05-07T10:45:25.435Z,993.75
2018-05-07T10:46:25.604Z,993.73
2018-05-07T10:47:25.769Z,993.69
2018-05-07T10:48:25.923Z,993.67
2018-05-07T10:49:26.080Z,993.64
2018-05-07T10:50:26.237Z,993.66
2018-05-07T10:51:26.397Z,993.67
2018-05-07T10:52:26.562Z,993.60
2018-05-07T10:53:26.720Z,993.65
2018-05-07T10:54:26.879Z,993.70
2018-05-07T10:55:27.040Z,993.63
2018-05-07T10:56:27.194Z,993.64
2018-05-07T10:57:27.351Z,993.62
2018-05-07T10:58:27.518Z,993.56
2018-05-07T10:59:27.677Z,993.59
2018-05-07T11:00:27.833Z,993.58
2018-05-07T11:01:27.997Z,993.53
2018-05-07T11:02:28.157Z,993.53
2018-05-07T11:03:28.318Z,993.53
2018-05-07T11:04:28.496Z,993.49
2018-05-07T11:05:28.635Z,993.39
2018-05-07T11:06:28.780Z,993.39
2018-05-07T11:07:28.995Z,993.38
2018-05-07T11:08:29.097Z,993.37
2018-05-07T11:09:29.251Z,993.41
2018-05-07T11:10:29.422Z,993.37
2018-05-07T11:11:29.581Z,993.33
2018-05-07T11:12:29.738Z,993.34
2018-05-07T11:13:29.911Z,993.41
2018-05-07T11:14:30.063Z,993.41
2018-05-07T11:15:30.220Z,993.41
2018-05-07T11:16:30.380Z,993.38
2018-05-07T11:17:30.540Z,993.37
2018-05-07T11:18:30.701Z,993.34
2018-05-07T11:19:30.863Z,993.35
2018-05-07T11:20:31.028Z,993.37
2018-05-07T11:21:31.189Z,993.35
2018-05-07T11:22:31.350Z,993.34
2018-05-07T11:23:31.510Z,993.32
2018-05-07T11:24:31.669Z,993.28
2018-05-07T11:25:31.831Z,993.29
2018-05-07T11:26:31.992Z,993.32
2018-05-07T11:27:32.156Z,993.28
2018-05-07T11:28:32.315Z,993.25
2018-05-07T11:29:32.478Z,993.28
2018-05-07T11:30:32.644Z,993.28
2018-05-07T11:31:32.824Z,993.27
2018-05-07T11:32:32.968Z,993.27
2018-05-07T11:33:33.116Z,993.23
2018-05-07T11:34:33.326Z,993.25
2018-05-07T11:35:33.426Z,993.21
2018-05-07T11:36:33.587Z,993.21
2018-05-07T11:37:33.739Z,993.25
2018-05-07T11:38:33.903Z,993.18
2018-05-07T11:39:34.063Z,993.20
2018-05-07T11:40:34.223Z,993.19
2018-05-07T11:41:34.387Z,993.15
2018-05-07T11:42:34.540Z,993.19
2018-05-07T11:43:34.702Z,993.17
2018-05-07T11:44:34.860Z,993.13
2018-05-07T11:45:35.022Z,993.14
2018-05-07T11:46:35.182Z,993.13
2018-05-07T11:47:35.468Z,993.12
2018-05-07T11:48:35.505Z,993.16
2018-05-07T11:49:35.653Z,993.14
2018-05-07T11:50:35.819Z,993.09
2018-05-07T11:51:35.980Z,993.13
2018-05-07T11:52:36.140Z,993.08
2018-05-07T11:53:36.323Z,993.11
2018-05-07T11:54:36.466Z,993.09
2018-05-07T11:55:36.616Z,993.09
2018-05-07T11:56:36.777Z,993.06
2018-05-07T11:57:36.936Z,993.07
2018-05-07T11:58:37.093Z,993.03
2018-05-07T11:59:37.260Z,993.00
2018-05-07T12:00:37.413Z,992.99
2018-05-07T12:01:37.578Z,992.99
2018-05-07T12:02:37.744Z,992.98
2018-05-07T12:03:37.894Z,993.00
2018-05-07T12:04:38.055Z,993.00
2018-05-07T12:05:38.216Z,993.00
2018-05-07T12:06:38.373Z,992.95
2018-05-07T12:07:38.538Z,992.97
2018-05-07T12:08:38.703Z,992.94
2018-05-07T12:09:38.866Z,992.89
2018-05-07T12:10:39.027Z,992.81
2018-05-07T12:11:39.184Z,992.95
2018-05-07T12:12:39.330Z,993.00
2018-05-07T12:13:39.492Z,992.95
2018-05-07T12:14:39.649Z,992.89
2018-05-07T12:15:39.813Z,992.91
2018-05-07T12:16:39.973Z,992.87
2018-05-07T12:17:40.135Z,992.85
2018-05-07T12:18:40.303Z,992.82
2018-05-07T12:19:40.467Z,992.84
2018-05-07T12:20:40.622Z,992.86
2018-05-07T12:21:40.784Z,992.83
2018-05-07T12:22:40.947Z,992.80
2018-05-07T12:23:41.110Z,992.80
2018-05-07T12:24:41.274Z,992.75
2018-05-07T12:25:41.435Z,992.77
2018-05-07T12:26:41.590Z,992.74
2018-05-07T12:27:41.748Z,992.80
2018-05-07T12:28:41.908Z,992.76
2018-05-07T12:29:42.078Z,992.73
2018-05-07T12:30:42.245Z,992.72